sensor_id;sensor_type;location;lat;lon;timestamp;temperature;humidity
6110;DHT22;3085;49.444;11.054;2022-09-23T00:01:57;10.10;99.90
6110;DHT22;3085;49.444;11.054;2022-09-23T00:04:23;10.00;99.90
6110;DHT22;3085;49.444;11.054;2022-09-23T00:06:50;10.00;99.90
6110;DHT22;3085;49.444;11.054;2022-09-23T00:09:17;10.00;99.90
6110;DHT22;3085;49.444;11.054;2022-09-23T00:11:44;10.00;99.90
6110;DHT22;3085;49.444;11.054;2022-09-23T00:14:11;9.90;99.90
6110;DHT22;3085;49.444;11.054;2022-09-23T00:16:37;9.90;99.90
6110;DHT22;3085;49.444;11.054;2022-09-23T00:19:06;9.90;99.90
6110;DHT22;3085;49.444;11.054;2022-09-23T00:21:33;9.80;99.90
6110;DHT22;3085;49.444;11.054;2022-09-23T00:24:00;9.70;99.90
6110;DHT22;3085;49.444;11.054;2022-09-23T00:26:27;9.70;99.90
6110;DHT22;3085;49.444;11.054;2022-09-23T00:28:54;9.70;99.90
6110;DHT22;3085;49.444;11.054;2022-09-23T00:31:22;9.70;99.90
6110;DHT22;3085;49.444;11.054;2022-09-23T00:33:53;9.70;99.90
6110;DHT22;3085;49.444;11.054;2022-09-23T00:36:22;9.70;99.90
6110;DHT22;3085;49.444;11.054;2022-09-23T00:38:50;9.70;99.90
6110;DHT22;3085;49.444;11.054;2022-09-23T00:41:17;9.80;99.90
6110;DHT22;3085;49.444;11.054;2022-09-23T00:43:46;9.70;99.90
6110;DHT22;3085;49.444;11.054;2022-09-23T00:46:18;9.70;99.90
6110;DHT22;3085;49.444;11.054;2022-09-23T00:48:47;9.70;99.90
6110;DHT22;3085;49.444;11.054;2022-09-23T00:51:20;9.60;99.90
6110;DHT22;3085;49.444;11.054;2022-09-23T00:53:50;9.60;99.90
6110;DHT22;3085;49.444;11.054;2022-09-23T00:56:19;9.80;99.90
6110;DHT22;3085;49.444;11.054;2022-09-23T00:58:48;9.80;99.90
6110;DHT22;3085;49.444;11.054;2022-09-23T01:01:15;9.60;99.90
6110;DHT22;3085;49.444;11.054;2022-09-23T01:03:44;9.60;99.90
6110;DHT22;3085;49.444;11.054;2022-09-23T01:06:11;9.60;99.90
6110;DHT22;3085;49.444;11.054;2022-09-23T01:08:39;9.50;99.90
6110;DHT22;3085;49.444;11.054;2022-09-23T01:11:18;9.40;99.90
6110;DHT22;3085;49.444;11.054;2022-09-23T01:13:54;9.30;99.90
6110;DHT22;3085;49.444;11.054;2022-09-23T01:16:29;9.20;99.90
6110;DHT22;3085;49.444;11.054;2022-09-23T01:19:17;9.00;99.90
6110;DHT22;3085;49.444;11.054;2022-09-23T01:21:53;9.00;99.90
6110;DHT22;3085;49.444;11.054;2022-09-23T01:24:46;9.10;99.90
6110;DHT22;3085;49.444;11.054;2022-09-23T01:27:30;9.20;99.90
6110;DHT22;3085;49.444;11.054;2022-09-23T01:30:17;9.30;99.90
6110;DHT22;3085;49.444;11.054;2022-09-23T01:33:00;9.30;99.90
6110;DHT22;3085;49.444;11.054;2022-09-23T01:35:39;9.20;99.90
6110;DHT22;3085;49.444;11.054;2022-09-23T01:38:15;9.40;99.90
6110;DHT22;3085;49.444;11.054;2022-09-23T01:40:50;9.20;99.90
6110;DHT22;3085;49.444;11.054;2022-09-23T01:43:23;9.20;99.90
6110;DHT22;3085;49.444;11.054;2022-09-23T01:45:54;9.20;99.90
6110;DHT22;3085;49.444;11.054;2022-09-23T01:48:28;9.10;99.90
6110;DHT22;3085;49.444;11.054;2022-09-23T01:51:02;9.20;99.90
6110;DHT22;3085;49.444;11.054;2022-09-23T01:53:36;9.20;99.90
6110;DHT22;3085;49.444;11.054;2022-09-23T01:56:10;9.10;99.90
6110;DHT22;3085;49.444;11.054;2022-09-23T01:58:41;9.10;99.90
6110;DHT22;3085;49.444;11.054;2022-09-23T02:01:13;9.00;99.90
6110;DHT22;3085;49.444;11.054;2022-09-23T02:03:45;9.00;99.90
6110;DHT22;3085;49.444;11.054;2022-09-23T02:06:16;9.00;99.90
6110;DHT22;3085;49.444;11.054;2022-09-23T02:08:48;9.00;99.90
6110;DHT22;3085;49.444;11.054;2022-09-23T02:11:16;9.00;99.90
6110;DHT22;3085;49.444;11.054;2022-09-23T02:13:47;8.90;99.90
6110;DHT22;3085;49.444;11.054;2022-09-23T02:16:22;8.90;99.90
6110;DHT22;3085;49.444;11.054;2022-09-23T02:18:54;8.90;99.90
6110;DHT22;3085;49.444;11.054;2022-09-23T02:21:25;8.90;99.90
6110;DHT22;3085;49.444;11.054;2022-09-23T02:23:58;8.90;99.90
6110;DHT22;3085;49.444;11.054;2022-09-23T02:26:30;8.90;99.90
6110;DHT22;3085;49.444;11.054;2022-09-23T02:29:06;8.80;99.90
6110;DHT22;3085;49.444;11.054;2022-09-23T02:31:38;8.80;99.90
6110;DHT22;3085;49.444;11.054;2022-09-23T02:34:20;8.90;99.90
6110;DHT22;3085;49.444;11.054;2022-09-23T02:36:55;8.80;99.90
6110;DHT22;3085;49.444;11.054;2022-09-23T02:39:30;8.80;99.90
6110;DHT22;3085;49.444;11.054;2022-09-23T02:42:03;8.80;99.90
6110;DHT22;3085;49.444;11.054;2022-09-23T02:44:32;8.70;99.90
6110;DHT22;3085;49.444;11.054;2022-09-23T02:46:59;8.80;99.90
6110;DHT22;3085;49.444;11.054;2022-09-23T02:49:29;8.70;99.90
6110;DHT22;3085;49.444;11.054;2022-09-23T02:51:59;8.70;99.90
6110;DHT22;3085;49.444;11.054;2022-09-23T02:54:30;8.70;99.90
6110;DHT22;3085;49.444;11.054;2022-09-23T02:56:59;8.70;99.90
6110;DHT22;3085;49.444;11.054;2022-09-23T02:59:27;8.70;99.90
6110;DHT22;3085;49.444;11.054;2022-09-23T03:02:24;8.90;99.90
6110;DHT22;3085;49.444;11.054;2022-09-23T03:05:01;8.70;99.90
6110;DHT22;3085;49.444;11.054;2022-09-23T03:07:37;8.60;99.90
6110;DHT22;3085;49.444;11.054;2022-09-23T03:10:15;9.70;99.90
6110;DHT22;3085;49.444;11.054;2022-09-23T03:12:50;8.60;99.90
6110;DHT22;3085;49.444;11.054;2022-09-23T03:15:22;8.60;99.90
6110;DHT22;3085;49.444;11.054;2022-09-23T03:17:55;8.60;99.90
6110;DHT22;3085;49.444;11.054;2022-09-23T03:20:31;8.60;99.90
6110;DHT22;3085;49.444;11.054;2022-09-23T03:23:02;8.50;99.90
6110;DHT22;3085;49.444;11.054;2022-09-23T03:25:34;8.50;99.90
6110;DHT22;3085;49.444;11.054;2022-09-23T03:28:03;8.50;99.90
6110;DHT22;3085;49.444;11.054;2022-09-23T03:30:32;8.50;99.90
6110;DHT22;3085;49.444;11.054;2022-09-23T03:33:01;8.50;99.90
6110;DHT22;3085;49.444;11.054;2022-09-23T03:35:31;8.50;99.90
6110;DHT22;3085;49.444;11.054;2022-09-23T03:38:22;8.40;99.90
6110;DHT22;3085;49.444;11.054;2022-09-23T03:40:53;8.40;99.90
6110;DHT22;3085;49.444;11.054;2022-09-23T03:43:21;8.40;99.90
6110;DHT22;3085;49.444;11.054;2022-09-23T03:45:52;8.40;99.90
6110;DHT22;3085;49.444;11.054;2022-09-23T03:48:21;8.40;99.90
6110;DHT22;3085;49.444;11.054;2022-09-23T03:50:49;8.40;99.90
6110;DHT22;3085;49.444;11.054;2022-09-23T03:53:16;8.30;99.90
6110;DHT22;3085;49.444;11.054;2022-09-23T03:55:45;8.40;99.90
6110;DHT22;3085;49.444;11.054;2022-09-23T03:58:12;8.30;99.90
6110;DHT22;3085;49.444;11.054;2022-09-23T04:00:40;8.20;99.90
6110;DHT22;3085;49.444;11.054;2022-09-23T04:03:07;8.20;99.90
6110;DHT22;3085;49.444;11.054;2022-09-23T04:05:34;8.20;99.90
6110;DHT22;3085;49.444;11.054;2022-09-23T04:08:03;8.20;99.90
6110;DHT22;3085;49.444;11.054;2022-09-23T04:10:30;8.20;99.90
6110;DHT22;3085;49.444;11.054;2022-09-23T04:12:56;8.20;99.90
6110;DHT22;3085;49.444;11.054;2022-09-23T04:15:23;8.10;99.90
6110;DHT22;3085;49.444;11.054;2022-09-23T04:17:50;8.10;99.90
6110;DHT22;3085;49.444;11.054;2022-09-23T04:20:17;8.00;99.90
6110;DHT22;3085;49.444;11.054;2022-09-23T04:22:45;8.10;99.90
6110;DHT22;3085;49.444;11.054;2022-09-23T04:25:13;8.00;99.90
6110;DHT22;3085;49.444;11.054;2022-09-23T04:27:40;8.10;99.90
6110;DHT22;3085;49.444;11.054;2022-09-23T04:30:07;8.00;99.90
6110;DHT22;3085;49.444;11.054;2022-09-23T04:32:34;7.90;99.90
6110;DHT22;3085;49.444;11.054;2022-09-23T04:35:01;7.90;99.90
6110;DHT22;3085;49.444;11.054;2022-09-23T04:37:28;8.00;99.90
6110;DHT22;3085;49.444;11.054;2022-09-23T04:39:55;7.90;99.90
6110;DHT22;3085;49.444;11.054;2022-09-23T04:42:23;7.90;99.90
6110;DHT22;3085;49.444;11.054;2022-09-23T04:44:53;7.90;99.90
6110;DHT22;3085;49.444;11.054;2022-09-23T04:47:20;7.90;99.90
6110;DHT22;3085;49.444;11.054;2022-09-23T04:49:47;7.90;99.90
6110;DHT22;3085;49.444;11.054;2022-09-23T04:52:14;7.80;99.90
6110;DHT22;3085;49.444;11.054;2022-09-23T04:54:41;7.80;99.90
6110;DHT22;3085;49.444;11.054;2022-09-23T04:57:07;7.80;99.90
6110;DHT22;3085;49.444;11.054;2022-09-23T04:59:36;7.80;99.90
6110;DHT22;3085;49.444;11.054;2022-09-23T05:02:04;7.80;99.90
6110;DHT22;3085;49.444;11.054;2022-09-23T05:04:30;7.80;99.90
6110;DHT22;3085;49.444;11.054;2022-09-23T05:06:57;7.80;99.90
6110;DHT22;3085;49.444;11.054;2022-09-23T05:09:24;7.70;99.90
6110;DHT22;3085;49.444;11.054;2022-09-23T05:11:51;7.80;99.90
6110;DHT22;3085;49.444;11.054;2022-09-23T05:14:19;7.80;99.90
6110;DHT22;3085;49.444;11.054;2022-09-23T05:16:47;7.90;99.90
6110;DHT22;3085;49.444;11.054;2022-09-23T05:19:14;7.90;99.90
6110;DHT22;3085;49.444;11.054;2022-09-23T05:21:40;7.80;99.90
6110;DHT22;3085;49.444;11.054;2022-09-23T05:24:07;7.80;99.90
6110;DHT22;3085;49.444;11.054;2022-09-23T05:26:35;7.80;99.90
6110;DHT22;3085;49.444;11.054;2022-09-23T05:29:02;7.90;99.90
6110;DHT22;3085;49.444;11.054;2022-09-23T05:31:30;7.90;99.90
6110;DHT22;3085;49.444;11.054;2022-09-23T05:33:59;7.90;99.90
6110;DHT22;3085;49.444;11.054;2022-09-23T05:36:28;7.80;99.90
6110;DHT22;3085;49.444;11.054;2022-09-23T05:38:55;7.90;99.90
6110;DHT22;3085;49.444;11.054;2022-09-23T05:41:24;7.90;99.90
6110;DHT22;3085;49.444;11.054;2022-09-23T05:43:52;7.90;99.90
6110;DHT22;3085;49.444;11.054;2022-09-23T05:46:20;7.90;99.90
6110;DHT22;3085;49.444;11.054;2022-09-23T05:48:47;7.90;99.90
6110;DHT22;3085;49.444;11.054;2022-09-23T05:51:17;8.00;99.90
6110;DHT22;3085;49.444;11.054;2022-09-23T05:53:45;7.90;99.90
6110;DHT22;3085;49.444;11.054;2022-09-23T05:56:14;7.90;99.90
6110;DHT22;3085;49.444;11.054;2022-09-23T05:58:41;7.90;99.90
6110;DHT22;3085;49.444;11.054;2022-09-23T06:01:09;8.00;99.90
6110;DHT22;3085;49.444;11.054;2022-09-23T06:03:36;8.00;99.90
6110;DHT22;3085;49.444;11.054;2022-09-23T06:06:03;8.10;99.90
6110;DHT22;3085;49.444;11.054;2022-09-23T06:08:32;8.10;99.90
6110;DHT22;3085;49.444;11.054;2022-09-23T06:11:05;8.20;99.90
6110;DHT22;3085;49.444;11.054;2022-09-23T06:13:33;8.20;99.90
6110;DHT22;3085;49.444;11.054;2022-09-23T06:16:03;8.20;99.90
6110;DHT22;3085;49.444;11.054;2022-09-23T06:18:30;8.30;99.90
6110;DHT22;3085;49.444;11.054;2022-09-23T06:20:59;8.50;99.90
6110;DHT22;3085;49.444;11.054;2022-09-23T06:23:27;8.40;99.90
6110;DHT22;3085;49.444;11.054;2022-09-23T06:25:59;8.20;99.90
6110;DHT22;3085;49.444;11.054;2022-09-23T06:28:28;8.40;99.90
6110;DHT22;3085;49.444;11.054;2022-09-23T06:30:57;8.40;99.90
6110;DHT22;3085;49.444;11.054;2022-09-23T06:33:23;8.50;99.90
6110;DHT22;3085;49.444;11.054;2022-09-23T06:35:54;8.60;99.90
6110;DHT22;3085;49.444;11.054;2022-09-23T06:38:22;8.70;99.90
6110;DHT22;3085;49.444;11.054;2022-09-23T06:40:50;8.60;99.90
6110;DHT22;3085;49.444;11.054;2022-09-23T06:43:18;8.70;99.90
6110;DHT22;3085;49.444;11.054;2022-09-23T06:45:45;8.80;99.90
6110;DHT22;3085;49.444;11.054;2022-09-23T06:48:12;8.80;99.90
6110;DHT22;3085;49.444;11.054;2022-09-23T06:50:39;8.90;99.90
6110;DHT22;3085;49.444;11.054;2022-09-23T06:53:06;9.00;99.90
6110;DHT22;3085;49.444;11.054;2022-09-23T06:55:33;9.00;99.90
6110;DHT22;3085;49.444;11.054;2022-09-23T06:57:59;9.10;99.90
6110;DHT22;3085;49.444;11.054;2022-09-23T07:00:28;9.20;99.90
6110;DHT22;3085;49.444;11.054;2022-09-23T07:02:54;9.20;99.90
6110;DHT22;3085;49.444;11.054;2022-09-23T07:05:21;9.30;99.90
6110;DHT22;3085;49.444;11.054;2022-09-23T07:07:48;9.40;99.90
6110;DHT22;3085;49.444;11.054;2022-09-23T07:10:15;9.40;99.90
6110;DHT22;3085;49.444;11.054;2022-09-23T07:12:42;9.50;99.90
6110;DHT22;3085;49.444;11.054;2022-09-23T07:15:10;9.60;99.90
6110;DHT22;3085;49.444;11.054;2022-09-23T07:17:40;9.70;99.90
6110;DHT22;3085;49.444;11.054;2022-09-23T07:20:08;9.70;99.90
6110;DHT22;3085;49.444;11.054;2022-09-23T07:22:35;9.80;99.90
6110;DHT22;3085;49.444;11.054;2022-09-23T07:25:03;9.60;99.90
6110;DHT22;3085;49.444;11.054;2022-09-23T07:27:30;9.70;99.90
6110;DHT22;3085;49.444;11.054;2022-09-23T07:29:57;9.90;99.90
6110;DHT22;3085;49.444;11.054;2022-09-23T07:32:25;10.00;99.90
6110;DHT22;3085;49.444;11.054;2022-09-23T07:34:53;10.00;99.90
6110;DHT22;3085;49.444;11.054;2022-09-23T07:37:20;10.10;99.90
6110;DHT22;3085;49.444;11.054;2022-09-23T07:39:47;10.20;99.90
6110;DHT22;3085;49.444;11.054;2022-09-23T07:42:15;10.30;99.90
6110;DHT22;3085;49.444;11.054;2022-09-23T07:44:42;10.30;99.90
6110;DHT22;3085;49.444;11.054;2022-09-23T07:47:12;10.40;99.90
6110;DHT22;3085;49.444;11.054;2022-09-23T07:49:39;10.60;99.90
6110;DHT22;3085;49.444;11.054;2022-09-23T07:52:08;10.70;99.90
6110;DHT22;3085;49.444;11.054;2022-09-23T07:54:38;10.80;99.90
6110;DHT22;3085;49.444;11.054;2022-09-23T07:57:05;10.80;99.90
6110;DHT22;3085;49.444;11.054;2022-09-23T07:59:32;11.00;99.90
6110;DHT22;3085;49.444;11.054;2022-09-23T08:01:59;11.00;99.90
6110;DHT22;3085;49.444;11.054;2022-09-23T08:04:27;11.10;99.90
6110;DHT22;3085;49.444;11.054;2022-09-23T08:06:56;11.20;99.90
6110;DHT22;3085;49.444;11.054;2022-09-23T08:09:26;11.30;99.90
6110;DHT22;3085;49.444;11.054;2022-09-23T08:11:53;11.20;99.90
6110;DHT22;3085;49.444;11.054;2022-09-23T08:14:21;11.30;99.90
6110;DHT22;3085;49.444;11.054;2022-09-23T08:16:47;11.40;99.90
6110;DHT22;3085;49.444;11.054;2022-09-23T08:19:15;11.50;99.90
6110;DHT22;3085;49.444;11.054;2022-09-23T08:21:42;11.60;99.90
6110;DHT22;3085;49.444;11.054;2022-09-23T08:24:13;11.70;99.90
6110;DHT22;3085;49.444;11.054;2022-09-23T08:26:41;11.80;99.90
6110;DHT22;3085;49.444;11.054;2022-09-23T08:29:11;11.90;99.90
6110;DHT22;3085;49.444;11.054;2022-09-23T08:31:38;12.00;99.90
6110;DHT22;3085;49.444;11.054;2022-09-23T08:34:05;12.00;99.90
6110;DHT22;3085;49.444;11.054;2022-09-23T08:36:33;12.10;99.90
6110;DHT22;3085;49.444;11.054;2022-09-23T08:39:00;12.10;99.90
6110;DHT22;3085;49.444;11.054;2022-09-23T08:41:35;12.10;99.90
6110;DHT22;3085;49.444;11.054;2022-09-23T08:44:10;12.20;99.90
6110;DHT22;3085;49.444;11.054;2022-09-23T08:46:43;12.30;99.90
6110;DHT22;3085;49.444;11.054;2022-09-23T08:49:15;12.40;99.90
6110;DHT22;3085;49.444;11.054;2022-09-23T08:51:44;12.40;99.90
6110;DHT22;3085;49.444;11.054;2022-09-23T08:54:13;12.50;99.90
6110;DHT22;3085;49.444;11.054;2022-09-23T08:56:44;12.60;99.90
6110;DHT22;3085;49.444;11.054;2022-09-23T08:59:19;12.70;99.90
6110;DHT22;3085;49.444;11.054;2022-09-23T09:01:51;12.80;99.90
6110;DHT22;3085;49.444;11.054;2022-09-23T09:04:22;12.90;99.90
6110;DHT22;3085;49.444;11.054;2022-09-23T09:06:55;13.00;99.90
6110;DHT22;3085;49.444;11.054;2022-09-23T09:09:27;13.10;99.90
6110;DHT22;3085;49.444;11.054;2022-09-23T09:12:00;13.20;99.90
6110;DHT22;3085;49.444;11.054;2022-09-23T09:14:35;13.30;99.90
6110;DHT22;3085;49.444;11.054;2022-09-23T09:17:04;13.40;99.90
6110;DHT22;3085;49.444;11.054;2022-09-23T09:19:54;13.50;99.90
6110;DHT22;3085;49.444;11.054;2022-09-23T09:22:33;13.70;99.90
6110;DHT22;3085;49.444;11.054;2022-09-23T09:25:14;13.80;99.90
6110;DHT22;3085;49.444;11.054;2022-09-23T09:27:43;13.90;99.90
6110;DHT22;3085;49.444;11.054;2022-09-23T09:30:12;14.00;99.90
6110;DHT22;3085;49.444;11.054;2022-09-23T09:32:43;14.10;99.90
6110;DHT22;3085;49.444;11.054;2022-09-23T09:35:19;14.20;99.90
6110;DHT22;3085;49.444;11.054;2022-09-23T09:37:58;14.30;99.90
6110;DHT22;3085;49.444;11.054;2022-09-23T09:40:28;14.30;99.90
6110;DHT22;3085;49.444;11.054;2022-09-23T09:42:55;14.40;99.90
6110;DHT22;3085;49.444;11.054;2022-09-23T09:45:41;14.40;99.90
6110;DHT22;3085;49.444;11.054;2022-09-23T09:48:16;14.50;99.90
6110;DHT22;3085;49.444;11.054;2022-09-23T09:50:48;14.60;99.90
6110;DHT22;3085;49.444;11.054;2022-09-23T09:53:21;14.60;99.90
6110;DHT22;3085;49.444;11.054;2022-09-23T09:55:57;14.70;99.90
6110;DHT22;3085;49.444;11.054;2022-09-23T09:58:27;14.70;99.90
6110;DHT22;3085;49.444;11.054;2022-09-23T10:00:57;14.70;99.90
6110;DHT22;3085;49.444;11.054;2022-09-23T10:03:32;14.80;99.90
6110;DHT22;3085;49.444;11.054;2022-09-23T10:06:00;14.80;99.90
6110;DHT22;3085;49.444;11.054;2022-09-23T10:08:38;14.80;99.90
6110;DHT22;3085;49.444;11.054;2022-09-23T10:11:10;14.80;99.90
6110;DHT22;3085;49.444;11.054;2022-09-23T10:13:40;14.80;99.90
6110;DHT22;3085;49.444;11.054;2022-09-23T10:16:08;14.80;99.90
6110;DHT22;3085;49.444;11.054;2022-09-23T10:18:36;14.80;99.90
6110;DHT22;3085;49.444;11.054;2022-09-23T10:21:07;14.80;99.90
6110;DHT22;3085;49.444;11.054;2022-09-23T10:23:38;14.90;99.90
6110;DHT22;3085;49.444;11.054;2022-09-23T10:26:08;14.90;99.90
6110;DHT22;3085;49.444;11.054;2022-09-23T10:28:43;15.00;99.90
6110;DHT22;3085;49.444;11.054;2022-09-23T10:31:14;15.10;99.90
6110;DHT22;3085;49.444;11.054;2022-09-23T10:33:47;15.10;99.90
6110;DHT22;3085;49.444;11.054;2022-09-23T10:36:15;15.20;99.90
6110;DHT22;3085;49.444;11.054;2022-09-23T10:38:42;15.20;99.90
6110;DHT22;3085;49.444;11.054;2022-09-23T10:41:21;15.30;99.90
6110;DHT22;3085;49.444;11.054;2022-09-23T10:44:20;15.30;99.90
6110;DHT22;3085;49.444;11.054;2022-09-23T10:47:19;15.50;99.90
6110;DHT22;3085;49.444;11.054;2022-09-23T10:50:13;15.60;99.90
6110;DHT22;3085;49.444;11.054;2022-09-23T10:52:51;15.70;99.90
6110;DHT22;3085;49.444;11.054;2022-09-23T10:55:38;15.80;99.90
6110;DHT22;3085;49.444;11.054;2022-09-23T11:01:44;15.80;99.90
6110;DHT22;3085;49.444;11.054;2022-09-23T11:04:43;15.80;99.90
6110;DHT22;3085;49.444;11.054;2022-09-23T11:07:23;15.90;99.90
6110;DHT22;3085;49.444;11.054;2022-09-23T11:10:17;16.00;99.90
6110;DHT22;3085;49.444;11.054;2022-09-23T11:12:53;16.10;99.90
6110;DHT22;3085;49.444;11.054;2022-09-23T11:15:31;16.10;99.90
6110;DHT22;3085;49.444;11.054;2022-09-23T11:18:28;16.20;99.90
6110;DHT22;3085;49.444;11.054;2022-09-23T11:21:08;16.20;99.90
6110;DHT22;3085;49.444;11.054;2022-09-23T11:23:52;16.30;99.90
6110;DHT22;3085;49.444;11.054;2022-09-23T11:26:34;16.30;99.90
6110;DHT22;3085;49.444;11.054;2022-09-23T11:29:27;16.20;99.90
6110;DHT22;3085;49.444;11.054;2022-09-23T11:32:13;16.20;99.90
6110;DHT22;3085;49.444;11.054;2022-09-23T11:34:59;16.30;99.90
6110;DHT22;3085;49.444;11.054;2022-09-23T11:37:34;16.40;99.90
6110;DHT22;3085;49.444;11.054;2022-09-23T11:40:11;16.40;99.90
6110;DHT22;3085;49.444;11.054;2022-09-23T11:42:53;16.40;99.90
6110;DHT22;3085;49.444;11.054;2022-09-23T11:45:26;16.40;99.90
6110;DHT22;3085;49.444;11.054;2022-09-23T11:47:57;16.30;99.90
6110;DHT22;3085;49.444;11.054;2022-09-23T11:50:30;16.40;99.90
6110;DHT22;3085;49.444;11.054;2022-09-23T11:53:05;16.60;99.90
6110;DHT22;3085;49.444;11.054;2022-09-23T11:55:38;16.50;99.90
6110;DHT22;3085;49.444;11.054;2022-09-23T11:58:09;16.50;99.90
6110;DHT22;3085;49.444;11.054;2022-09-23T12:00:45;16.60;99.90
6110;DHT22;3085;49.444;11.054;2022-09-23T12:03:18;16.40;99.90
6110;DHT22;3085;49.444;11.054;2022-09-23T12:05:56;16.40;99.90
6110;DHT22;3085;49.444;11.054;2022-09-23T12:08:27;16.40;99.90
6110;DHT22;3085;49.444;11.054;2022-09-23T12:11:01;16.40;99.90
6110;DHT22;3085;49.444;11.054;2022-09-23T12:13:36;16.50;99.90
6110;DHT22;3085;49.444;11.054;2022-09-23T12:16:28;16.50;99.90
6110;DHT22;3085;49.444;11.054;2022-09-23T12:19:06;16.60;99.90
6110;DHT22;3085;49.444;11.054;2022-09-23T12:21:49;16.70;99.90
6110;DHT22;3085;49.444;11.054;2022-09-23T12:24:31;16.70;99.90
6110;DHT22;3085;49.444;11.054;2022-09-23T12:27:08;16.80;99.90
6110;DHT22;3085;49.444;11.054;2022-09-23T12:29:37;16.90;99.90
6110;DHT22;3085;49.444;11.054;2022-09-23T12:32:05;17.00;99.90
6110;DHT22;3085;49.444;11.054;2022-09-23T12:34:40;16.90;99.90
6110;DHT22;3085;49.444;11.054;2022-09-23T12:37:23;17.10;99.90
6110;DHT22;3085;49.444;11.054;2022-09-23T12:39:52;17.20;99.90
6110;DHT22;3085;49.444;11.054;2022-09-23T12:44:48;17.10;99.90
6110;DHT22;3085;49.444;11.054;2022-09-23T12:47:37;17.20;99.90
6110;DHT22;3085;49.444;11.054;2022-09-23T12:56:22;17.40;99.90
6110;DHT22;3085;49.444;11.054;2022-09-23T12:59:00;17.30;99.90
6110;DHT22;3085;49.444;11.054;2022-09-23T13:01:34;17.40;99.90
6110;DHT22;3085;49.444;11.054;2022-09-23T13:04:03;17.40;99.90
6110;DHT22;3085;49.444;11.054;2022-09-23T13:06:54;17.30;99.90
6110;DHT22;3085;49.444;11.054;2022-09-23T13:09:25;17.40;99.90
6110;DHT22;3085;49.444;11.054;2022-09-23T13:11:57;17.50;99.90
6110;DHT22;3085;49.444;11.054;2022-09-23T13:14:27;17.60;99.90
6110;DHT22;3085;49.444;11.054;2022-09-23T13:16:56;17.50;99.90
6110;DHT22;3085;49.444;11.054;2022-09-23T13:19:42;17.70;99.90
6110;DHT22;3085;49.444;11.054;2022-09-23T13:22:10;17.80;99.90
6110;DHT22;3085;49.444;11.054;2022-09-23T13:24:40;17.80;99.90
6110;DHT22;3085;49.444;11.054;2022-09-23T13:27:15;17.90;99.90
6110;DHT22;3085;49.444;11.054;2022-09-23T13:29:46;18.00;99.90
6110;DHT22;3085;49.444;11.054;2022-09-23T13:32:17;17.90;99.90
6110;DHT22;3085;49.444;11.054;2022-09-23T13:34:46;17.90;99.90
6110;DHT22;3085;49.444;11.054;2022-09-23T13:37:22;18.00;99.90
6110;DHT22;3085;49.444;11.054;2022-09-23T13:39:49;18.10;99.90
6110;DHT22;3085;49.444;11.054;2022-09-23T13:42:23;18.20;99.90
6110;DHT22;3085;49.444;11.054;2022-09-23T13:44:53;18.10;99.90
6110;DHT22;3085;49.444;11.054;2022-09-23T13:47:22;18.20;99.90
6110;DHT22;3085;49.444;11.054;2022-09-23T13:49:52;18.40;99.90
6110;DHT22;3085;49.444;11.054;2022-09-23T13:52:24;18.40;99.90
6110;DHT22;3085;49.444;11.054;2022-09-23T13:54:52;18.50;99.90
6110;DHT22;3085;49.444;11.054;2022-09-23T13:57:28;18.50;99.90
6110;DHT22;3085;49.444;11.054;2022-09-23T13:59:59;18.50;99.90
6110;DHT22;3085;49.444;11.054;2022-09-23T14:02:26;18.50;99.90
6110;DHT22;3085;49.444;11.054;2022-09-23T14:04:55;18.30;99.90
6110;DHT22;3085;49.444;11.054;2022-09-23T14:07:22;18.30;99.90
6110;DHT22;3085;49.444;11.054;2022-09-23T14:09:51;18.30;99.90
6110;DHT22;3085;49.444;11.054;2022-09-23T14:12:19;18.30;99.90
6110;DHT22;3085;49.444;11.054;2022-09-23T14:14:49;18.40;99.90
6110;DHT22;3085;49.444;11.054;2022-09-23T14:17:19;18.30;99.90
6110;DHT22;3085;49.444;11.054;2022-09-23T14:19:48;18.30;99.90
6110;DHT22;3085;49.444;11.054;2022-09-23T14:22:23;18.20;99.90
6110;DHT22;3085;49.444;11.054;2022-09-23T14:24:51;18.20;99.90
6110;DHT22;3085;49.444;11.054;2022-09-23T14:27:24;18.30;99.90
6110;DHT22;3085;49.444;11.054;2022-09-23T14:29:55;18.20;99.90
6110;DHT22;3085;49.444;11.054;2022-09-23T14:32:25;18.30;99.90
6110;DHT22;3085;49.444;11.054;2022-09-23T14:35:05;18.50;99.90
6110;DHT22;3085;49.444;11.054;2022-09-23T14:37:39;18.60;99.90
6110;DHT22;3085;49.444;11.054;2022-09-23T14:40:26;18.70;99.90
6110;DHT22;3085;49.444;11.054;2022-09-23T14:42:57;18.70;99.90
6110;DHT22;3085;49.444;11.054;2022-09-23T14:45:29;18.80;99.90
6110;DHT22;3085;49.444;11.054;2022-09-23T14:47:58;18.70;99.90
6110;DHT22;3085;49.444;11.054;2022-09-23T14:50:27;18.50;99.90
6110;DHT22;3085;49.444;11.054;2022-09-23T14:53:39;18.60;99.90
6110;DHT22;3085;49.444;11.054;2022-09-23T14:56:16;18.70;99.90
6110;DHT22;3085;49.444;11.054;2022-09-23T14:58:47;18.70;99.90
6110;DHT22;3085;49.444;11.054;2022-09-23T15:01:36;18.80;99.90
6110;DHT22;3085;49.444;11.054;2022-09-23T15:04:13;18.80;99.90
6110;DHT22;3085;49.444;11.054;2022-09-23T15:06:45;18.80;99.90
6110;DHT22;3085;49.444;11.054;2022-09-23T15:09:18;18.70;99.90
6110;DHT22;3085;49.444;11.054;2022-09-23T15:11:46;18.70;99.90
6110;DHT22;3085;49.444;11.054;2022-09-23T15:14:13;18.70;99.90
6110;DHT22;3085;49.444;11.054;2022-09-23T15:16:42;18.80;99.90
6110;DHT22;3085;49.444;11.054;2022-09-23T15:19:16;18.90;99.90
6110;DHT22;3085;49.444;11.054;2022-09-23T15:21:45;20.10;99.90
6110;DHT22;3085;49.444;11.054;2022-09-23T15:24:31;18.90;99.90
6110;DHT22;3085;49.444;11.054;2022-09-23T15:26:59;18.80;99.90
6110;DHT22;3085;49.444;11.054;2022-09-23T15:29:26;18.60;99.90
6110;DHT22;3085;49.444;11.054;2022-09-23T15:31:54;18.50;99.90
6110;DHT22;3085;49.444;11.054;2022-09-23T15:34:22;18.50;99.90
6110;DHT22;3085;49.444;11.054;2022-09-23T15:36:49;18.60;99.90
6110;DHT22;3085;49.444;11.054;2022-09-23T15:39:16;18.60;99.90
6110;DHT22;3085;49.444;11.054;2022-09-23T15:41:42;18.70;99.90
6110;DHT22;3085;49.444;11.054;2022-09-23T15:44:12;18.70;99.90
6110;DHT22;3085;49.444;11.054;2022-09-23T15:46:44;18.80;99.90
6110;DHT22;3085;49.444;11.054;2022-09-23T15:49:19;19.00;99.90
6110;DHT22;3085;49.444;11.054;2022-09-23T15:51:48;19.10;99.90
6110;DHT22;3085;49.444;11.054;2022-09-23T15:54:17;18.90;99.90
6110;DHT22;3085;49.444;11.054;2022-09-23T15:56:44;19.10;99.90
6110;DHT22;3085;49.444;11.054;2022-09-23T15:59:12;19.10;99.90
6110;DHT22;3085;49.444;11.054;2022-09-23T16:01:40;19.10;99.90
6110;DHT22;3085;49.444;11.054;2022-09-23T16:04:08;19.30;99.90
6110;DHT22;3085;49.444;11.054;2022-09-23T16:06:36;19.20;99.90
6110;DHT22;3085;49.444;11.054;2022-09-23T16:09:04;19.20;99.90
6110;DHT22;3085;49.444;11.054;2022-09-23T16:11:31;19.20;99.90
6110;DHT22;3085;49.444;11.054;2022-09-23T16:13:58;19.00;99.90
6110;DHT22;3085;49.444;11.054;2022-09-23T16:16:25;19.10;99.90
6110;DHT22;3085;49.444;11.054;2022-09-23T16:18:52;19.10;99.90
6110;DHT22;3085;49.444;11.054;2022-09-23T16:21:22;19.20;99.90
6110;DHT22;3085;49.444;11.054;2022-09-23T16:23:51;19.20;99.90
6110;DHT22;3085;49.444;11.054;2022-09-23T16:26:22;19.20;99.90
6110;DHT22;3085;49.444;11.054;2022-09-23T16:28:52;19.00;99.90
6110;DHT22;3085;49.444;11.054;2022-09-23T16:31:20;19.00;99.90
6110;DHT22;3085;49.444;11.054;2022-09-23T16:33:49;18.90;99.90